Leeds Point, New Jersey
Current Conditions -  °F | °C
As of 7:54 AM on Saturday 20 Dec 2014 (Local Time) from KACY Reporting Station
Overcast Overcast  
Wind Chill: 30°   Ceiling: 2900
Heat Index: 30°   Visibility: 10mi
Dew Point: 24°   Wind: 3mph
Humidity: 79%   Direction: 300°WNW
Pressure: 30.28"   Gusts: NA
Location:  39.49°N, 74.43°W
Report Text: KACY 201254Z 30003KT 10SM OVC029 M01/M04 A3028 RMK AO2 SLP253 T10111044
Loading
Personal Weather Stations






























Interactive Weather Map New forecast layout! Learn more

10-Day Weather Forecast

Advertisements
Track Severe Weather on mobile